sensor_id;sensor_type;location;lat;lon;timestamp;P1;durP1;ratioP1;P2;durP2;ratioP2
12816;SDS011;6473;51.552;6.716;2022-09-28T00:01:30;5.90;;;4.28;;
12816;SDS011;6473;51.552;6.716;2022-09-28T00:03:59;5.53;;;4.05;;
12816;SDS011;6473;51.552;6.716;2022-09-28T00:06:27;5.70;;;3.83;;
12816;SDS011;6473;51.552;6.716;2022-09-28T00:08:55;4.60;;;4.07;;
12816;SDS011;6473;51.552;6.716;2022-09-28T00:11:24;4.15;;;3.72;;
12816;SDS011;6473;51.552;6.716;2022-09-28T00:13:53;4.68;;;3.90;;
12816;SDS011;6473;51.552;6.716;2022-09-28T00:16:22;4.78;;;4.22;;
12816;SDS011;6473;51.552;6.716;2022-09-28T00:18:51;5.45;;;4.65;;
12816;SDS011;6473;51.552;6.716;2022-09-28T00:21:20;5.10;;;4.60;;
12816;SDS011;6473;51.552;6.716;2022-09-28T00:23:50;6.68;;;4.55;;
12816;SDS011;6473;51.552;6.716;2022-09-28T00:26:35;4.93;;;3.90;;
12816;SDS011;6473;51.552;6.716;2022-09-28T00:29:02;4.78;;;4.22;;
12816;SDS011;6473;51.552;6.716;2022-09-28T00:31:30;4.85;;;4.15;;
12816;SDS011;6473;51.552;6.716;2022-09-28T00:33:59;6.25;;;4.47;;
12816;SDS011;6473;51.552;6.716;2022-09-28T00:36:28;5.07;;;4.35;;
12816;SDS011;6473;51.552;6.716;2022-09-28T00:38:57;5.07;;;4.05;;
12816;SDS011;6473;51.552;6.716;2022-09-28T00:41:25;4.05;;;3.65;;
12816;SDS011;6473;51.552;6.716;2022-09-28T00:46:54;5.22;;;4.40;;
12816;SDS011;6473;51.552;6.716;2022-09-28T00:49:28;4.65;;;4.15;;
12816;SDS011;6473;51.552;6.716;2022-09-28T00:52:00;4.50;;;4.10;;
12816;SDS011;6473;51.552;6.716;2022-09-28T00:54:30;4.70;;;4.22;;
12816;SDS011;6473;51.552;6.716;2022-09-28T00:56:57;6.53;;;4.20;;
12816;SDS011;6473;51.552;6.716;2022-09-28T00:59:26;5.95;;;4.45;;
12816;SDS011;6473;51.552;6.716;2022-09-28T01:01:53;5.85;;;4.00;;
12816;SDS011;6473;51.552;6.716;2022-09-28T01:04:21;7.78;;;4.82;;
12816;SDS011;6473;51.552;6.716;2022-09-28T01:06:48;5.82;;;4.35;;
12816;SDS011;6473;51.552;6.716;2022-09-28T01:09:18;7.18;;;4.75;;
12816;SDS011;6473;51.552;6.716;2022-09-28T01:11:47;6.95;;;4.90;;
12816;SDS011;6473;51.552;6.716;2022-09-28T01:14:14;5.93;;;4.55;;
12816;SDS011;6473;51.552;6.716;2022-09-28T01:16:44;6.50;;;4.95;;
12816;SDS011;6473;51.552;6.716;2022-09-28T01:19:54;7.10;;;4.43;;
12816;SDS011;6473;51.552;6.716;2022-09-28T01:22:39;6.80;;;4.38;;
12816;SDS011;6473;51.552;6.716;2022-09-28T01:25:30;5.70;;;4.32;;
12816;SDS011;6473;51.552;6.716;2022-09-28T01:28:06;5.28;;;4.47;;
12816;SDS011;6473;51.552;6.716;2022-09-28T01:30:38;5.15;;;4.65;;
12816;SDS011;6473;51.552;6.716;2022-09-28T01:33:11;7.28;;;5.32;;
12816;SDS011;6473;51.552;6.716;2022-09-28T01:35:42;6.93;;;5.05;;
12816;SDS011;6473;51.552;6.716;2022-09-28T01:38:14;5.97;;;4.93;;
12816;SDS011;6473;51.552;6.716;2022-09-28T01:40:45;5.53;;;4.47;;
12816;SDS011;6473;51.552;6.716;2022-09-28T01:43:16;7.35;;;4.95;;
12816;SDS011;6473;51.552;6.716;2022-09-28T01:45:45;6.70;;;5.40;;
12816;SDS011;6473;51.552;6.716;2022-09-28T01:48:16;6.55;;;4.97;;
12816;SDS011;6473;51.552;6.716;2022-09-28T01:50:49;6.38;;;5.35;;
12816;SDS011;6473;51.552;6.716;2022-09-28T01:53:21;6.00;;;4.97;;
12816;SDS011;6473;51.552;6.716;2022-09-28T01:55:56;6.25;;;5.35;;
12816;SDS011;6473;51.552;6.716;2022-09-28T01:58:29;7.35;;;6.15;;
12816;SDS011;6473;51.552;6.716;2022-09-28T02:01:02;9.20;;;6.82;;
12816;SDS011;6473;51.552;6.716;2022-09-28T02:03:35;9.25;;;7.82;;
12816;SDS011;6473;51.552;6.716;2022-09-28T02:06:07;8.88;;;7.25;;
12816;SDS011;6473;51.552;6.716;2022-09-28T02:08:42;9.20;;;7.65;;
12816;SDS011;6473;51.552;6.716;2022-09-28T02:11:15;9.85;;;8.32;;
12816;SDS011;6473;51.552;6.716;2022-09-28T02:13:46;9.07;;;8.13;;
12816;SDS011;6473;51.552;6.716;2022-09-28T02:16:20;9.23;;;7.95;;
12816;SDS011;6473;51.552;6.716;2022-09-28T02:18:48;12.00;;;8.95;;
12816;SDS011;6473;51.552;6.716;2022-09-28T02:21:17;13.63;;;9.80;;
12816;SDS011;6473;51.552;6.716;2022-09-28T02:23:51;12.57;;;9.02;;
12816;SDS011;6473;51.552;6.716;2022-09-28T02:26:24;13.95;;;10.23;;
12816;SDS011;6473;51.552;6.716;2022-09-28T02:28:58;12.55;;;10.13;;
12816;SDS011;6473;51.552;6.716;2022-09-28T02:31:25;15.95;;;11.48;;
12816;SDS011;6473;51.552;6.716;2022-09-28T02:33:52;13.48;;;10.45;;
12816;SDS011;6473;51.552;6.716;2022-09-28T02:36:21;15.07;;;10.25;;
12816;SDS011;6473;51.552;6.716;2022-09-28T02:38:50;12.75;;;10.77;;
12816;SDS011;6473;51.552;6.716;2022-09-28T02:41:20;15.60;;;10.13;;
12816;SDS011;6473;51.552;6.716;2022-09-28T02:44:00;14.07;;;9.70;;
12816;SDS011;6473;51.552;6.716;2022-09-28T02:46:40;12.50;;;10.40;;
12816;SDS011;6473;51.552;6.716;2022-09-28T02:49:22;12.23;;;10.40;;
12816;SDS011;6473;51.552;6.716;2022-09-28T02:52:07;13.20;;;10.48;;
12816;SDS011;6473;51.552;6.716;2022-09-28T02:54:59;13.95;;;9.57;;
12816;SDS011;6473;51.552;6.716;2022-09-28T02:57:46;15.85;;;10.10;;
12816;SDS011;6473;51.552;6.716;2022-09-28T03:00:27;14.05;;;10.25;;
12816;SDS011;6473;51.552;6.716;2022-09-28T03:02:59;12.73;;;10.25;;
12816;SDS011;6473;51.552;6.716;2022-09-28T03:05:35;13.20;;;10.45;;
12816;SDS011;6473;51.552;6.716;2022-09-28T03:08:09;14.30;;;10.13;;
12816;SDS011;6473;51.552;6.716;2022-09-28T03:10:45;14.88;;;10.65;;
12816;SDS011;6473;51.552;6.716;2022-09-28T03:13:16;13.60;;;10.55;;
12816;SDS011;6473;51.552;6.716;2022-09-28T03:15:45;13.45;;;10.65;;
12816;SDS011;6473;51.552;6.716;2022-09-28T03:18:12;17.35;;;11.45;;
12816;SDS011;6473;51.552;6.716;2022-09-28T03:20:40;14.85;;;11.20;;
12816;SDS011;6473;51.552;6.716;2022-09-28T03:23:07;15.65;;;11.98;;
12816;SDS011;6473;51.552;6.716;2022-09-28T03:25:33;14.60;;;11.07;;
12816;SDS011;6473;51.552;6.716;2022-09-28T03:28:01;14.13;;;11.55;;
12816;SDS011;6473;51.552;6.716;2022-09-28T03:30:31;15.25;;;11.18;;
12816;SDS011;6473;51.552;6.716;2022-09-28T03:32:59;16.33;;;11.95;;
12816;SDS011;6473;51.552;6.716;2022-09-28T03:35:29;13.93;;;11.15;;
12816;SDS011;6473;51.552;6.716;2022-09-28T03:37:56;18.15;;;12.25;;
12816;SDS011;6473;51.552;6.716;2022-09-28T03:40:26;15.27;;;11.93;;
12816;SDS011;6473;51.552;6.716;2022-09-28T03:42:52;15.60;;;12.18;;
12816;SDS011;6473;51.552;6.716;2022-09-28T03:45:19;16.90;;;11.82;;
12816;SDS011;6473;51.552;6.716;2022-09-28T03:47:48;14.70;;;12.10;;
12816;SDS011;6473;51.552;6.716;2022-09-28T03:50:18;14.95;;;11.25;;
12816;SDS011;6473;51.552;6.716;2022-09-28T03:52:46;17.73;;;13.30;;
12816;SDS011;6473;51.552;6.716;2022-09-28T03:55:13;17.33;;;12.27;;
12816;SDS011;6473;51.552;6.716;2022-09-28T03:57:41;14.00;;;11.88;;
12816;SDS011;6473;51.552;6.716;2022-09-28T04:00:08;17.25;;;12.80;;
12816;SDS011;6473;51.552;6.716;2022-09-28T04:02:41;18.55;;;13.07;;
12816;SDS011;6473;51.552;6.716;2022-09-28T04:05:09;15.90;;;12.18;;
12816;SDS011;6473;51.552;6.716;2022-09-28T04:07:37;16.38;;;12.82;;
12816;SDS011;6473;51.552;6.716;2022-09-28T04:10:05;15.73;;;12.05;;
12816;SDS011;6473;51.552;6.716;2022-09-28T04:12:33;14.38;;;11.07;;
12816;SDS011;6473;51.552;6.716;2022-09-28T04:15:00;14.20;;;10.13;;
12816;SDS011;6473;51.552;6.716;2022-09-28T04:17:27;12.57;;;10.50;;
12816;SDS011;6473;51.552;6.716;2022-09-28T04:19:54;13.13;;;10.73;;
12816;SDS011;6473;51.552;6.716;2022-09-28T04:22:38;13.05;;;10.35;;
12816;SDS011;6473;51.552;6.716;2022-09-28T04:25:05;11.50;;;9.38;;
12816;SDS011;6473;51.552;6.716;2022-09-28T04:27:33;15.05;;;11.10;;
12816;SDS011;6473;51.552;6.716;2022-09-28T04:30:17;15.23;;;11.68;;
12816;SDS011;6473;51.552;6.716;2022-09-28T04:32:44;15.52;;;11.73;;
12816;SDS011;6473;51.552;6.716;2022-09-28T04:35:12;12.07;;;10.73;;
12816;SDS011;6473;51.552;6.716;2022-09-28T04:37:41;14.55;;;11.48;;
12816;SDS011;6473;51.552;6.716;2022-09-28T04:40:08;15.07;;;11.93;;
12816;SDS011;6473;51.552;6.716;2022-09-28T04:42:36;14.25;;;11.70;;
12816;SDS011;6473;51.552;6.716;2022-09-28T04:45:03;15.85;;;12.18;;
12816;SDS011;6473;51.552;6.716;2022-09-28T04:47:36;16.85;;;12.40;;
12816;SDS011;6473;51.552;6.716;2022-09-28T04:50:14;17.85;;;12.45;;
12816;SDS011;6473;51.552;6.716;2022-09-28T04:53:12;16.27;;;12.68;;
12816;SDS011;6473;51.552;6.716;2022-09-28T04:55:39;14.63;;;12.52;;
12816;SDS011;6473;51.552;6.716;2022-09-28T04:58:06;16.10;;;12.63;;
12816;SDS011;6473;51.552;6.716;2022-09-28T05:00:33;16.55;;;12.65;;
12816;SDS011;6473;51.552;6.716;2022-09-28T05:03:09;15.18;;;13.15;;
12816;SDS011;6473;51.552;6.716;2022-09-28T05:05:54;15.52;;;12.60;;
12816;SDS011;6473;51.552;6.716;2022-09-28T05:08:37;14.93;;;12.23;;
12816;SDS011;6473;51.552;6.716;2022-09-28T05:11:06;16.80;;;12.25;;
12816;SDS011;6473;51.552;6.716;2022-09-28T05:13:37;15.30;;;13.32;;
12816;SDS011;6473;51.552;6.716;2022-09-28T05:16:06;17.02;;;12.93;;
12816;SDS011;6473;51.552;6.716;2022-09-28T05:18:44;14.38;;;12.27;;
12816;SDS011;6473;51.552;6.716;2022-09-28T05:21:12;16.20;;;12.82;;
12816;SDS011;6473;51.552;6.716;2022-09-28T05:23:44;14.70;;;12.07;;
12816;SDS011;6473;51.552;6.716;2022-09-28T05:26:11;16.52;;;12.48;;
12816;SDS011;6473;51.552;6.716;2022-09-28T05:28:38;14.40;;;12.10;;
12816;SDS011;6473;51.552;6.716;2022-09-28T05:31:24;14.45;;;12.32;;
12816;SDS011;6473;51.552;6.716;2022-09-28T05:34:14;16.10;;;13.57;;
12816;SDS011;6473;51.552;6.716;2022-09-28T05:36:42;17.98;;;12.77;;
12816;SDS011;6473;51.552;6.716;2022-09-28T05:39:11;14.48;;;12.13;;
12816;SDS011;6473;51.552;6.716;2022-09-28T05:41:38;14.10;;;11.98;;
12816;SDS011;6473;51.552;6.716;2022-09-28T05:44:05;13.52;;;11.60;;
12816;SDS011;6473;51.552;6.716;2022-09-28T05:46:33;14.07;;;11.93;;
12816;SDS011;6473;51.552;6.716;2022-09-28T05:49:00;15.68;;;12.15;;
12816;SDS011;6473;51.552;6.716;2022-09-28T05:51:27;17.40;;;12.65;;
12816;SDS011;6473;51.552;6.716;2022-09-28T05:53:54;14.43;;;12.13;;
12816;SDS011;6473;51.552;6.716;2022-09-28T05:56:25;14.75;;;11.63;;
12816;SDS011;6473;51.552;6.716;2022-09-28T05:58:54;14.18;;;11.65;;
12816;SDS011;6473;51.552;6.716;2022-09-28T06:01:24;15.50;;;12.40;;
12816;SDS011;6473;51.552;6.716;2022-09-28T06:03:53;15.25;;;12.70;;
12816;SDS011;6473;51.552;6.716;2022-09-28T06:06:20;16.13;;;12.77;;
12816;SDS011;6473;51.552;6.716;2022-09-28T06:08:47;17.33;;;13.30;;
12816;SDS011;6473;51.552;6.716;2022-09-28T06:11:45;16.33;;;12.15;;
12816;SDS011;6473;51.552;6.716;2022-09-28T06:14:38;16.63;;;11.90;;
12816;SDS011;6473;51.552;6.716;2022-09-28T06:17:05;14.48;;;12.27;;
12816;SDS011;6473;51.552;6.716;2022-09-28T06:19:32;14.75;;;12.48;;
12816;SDS011;6473;51.552;6.716;2022-09-28T06:22:15;14.77;;;11.52;;
12816;SDS011;6473;51.552;6.716;2022-09-28T06:24:54;19.67;;;11.77;;
12816;SDS011;6473;51.552;6.716;2022-09-28T06:27:24;16.27;;;11.15;;
12816;SDS011;6473;51.552;6.716;2022-09-28T06:29:51;14.15;;;12.55;;
12816;SDS011;6473;51.552;6.716;2022-09-28T06:32:18;14.40;;;12.35;;
12816;SDS011;6473;51.552;6.716;2022-09-28T06:34:47;14.38;;;11.60;;
12816;SDS011;6473;51.552;6.716;2022-09-28T06:37:14;16.55;;;12.32;;
12816;SDS011;6473;51.552;6.716;2022-09-28T06:39:41;15.23;;;12.02;;
12816;SDS011;6473;51.552;6.716;2022-09-28T06:42:08;15.48;;;11.85;;
12816;SDS011;6473;51.552;6.716;2022-09-28T06:44:55;15.70;;;11.77;;
12816;SDS011;6473;51.552;6.716;2022-09-28T06:47:41;14.10;;;10.57;;
12816;SDS011;6473;51.552;6.716;2022-09-28T06:50:29;13.65;;;11.13;;
12816;SDS011;6473;51.552;6.716;2022-09-28T06:53:12;14.25;;;11.35;;
12816;SDS011;6473;51.552;6.716;2022-09-28T06:55:48;14.35;;;10.82;;
12816;SDS011;6473;51.552;6.716;2022-09-28T06:58:17;14.48;;;9.90;;
12816;SDS011;6473;51.552;6.716;2022-09-28T07:00:47;13.00;;;10.88;;
12816;SDS011;6473;51.552;6.716;2022-09-28T07:03:17;14.60;;;10.27;;
12816;SDS011;6473;51.552;6.716;2022-09-28T07:05:58;13.93;;;10.27;;
12816;SDS011;6473;51.552;6.716;2022-09-28T07:08:43;14.10;;;10.40;;
12816;SDS011;6473;51.552;6.716;2022-09-28T07:11:35;11.35;;;9.90;;
12816;SDS011;6473;51.552;6.716;2022-09-28T07:14:23;12.15;;;9.63;;
12816;SDS011;6473;51.552;6.716;2022-09-28T07:16:52;13.77;;;10.13;;
12816;SDS011;6473;51.552;6.716;2022-09-28T07:19:21;10.25;;;9.25;;
12816;SDS011;6473;51.552;6.716;2022-09-28T07:21:50;11.10;;;8.75;;
12816;SDS011;6473;51.552;6.716;2022-09-28T07:24:16;10.50;;;8.68;;
12816;SDS011;6473;51.552;6.716;2022-09-28T07:27:16;12.00;;;9.18;;
12816;SDS011;6473;51.552;6.716;2022-09-28T07:30:04;10.90;;;7.80;;
12816;SDS011;6473;51.552;6.716;2022-09-28T07:32:42;10.23;;;8.35;;
12816;SDS011;6473;51.552;6.716;2022-09-28T07:35:21;9.05;;;8.13;;
12816;SDS011;6473;51.552;6.716;2022-09-28T07:37:55;10.82;;;8.15;;
12816;SDS011;6473;51.552;6.716;2022-09-28T07:40:24;8.98;;;8.07;;
12816;SDS011;6473;51.552;6.716;2022-09-28T07:43:09;9.63;;;7.45;;
12816;SDS011;6473;51.552;6.716;2022-09-28T07:45:37;8.05;;;7.13;;
12816;SDS011;6473;51.552;6.716;2022-09-28T07:48:05;8.18;;;7.38;;
12816;SDS011;6473;51.552;6.716;2022-09-28T07:50:46;8.63;;;7.07;;
12816;SDS011;6473;51.552;6.716;2022-09-28T07:53:30;7.68;;;6.90;;
12816;SDS011;6473;51.552;6.716;2022-09-28T07:56:15;8.70;;;7.47;;
12816;SDS011;6473;51.552;6.716;2022-09-28T07:59:07;8.77;;;6.68;;
12816;SDS011;6473;51.552;6.716;2022-09-28T08:01:52;7.65;;;6.78;;
12816;SDS011;6473;51.552;6.716;2022-09-28T08:04:20;7.20;;;6.30;;
12816;SDS011;6473;51.552;6.716;2022-09-28T08:06:49;7.18;;;6.30;;
12816;SDS011;6473;51.552;6.716;2022-09-28T08:09:17;6.78;;;6.03;;
12816;SDS011;6473;51.552;6.716;2022-09-28T08:12:07;6.25;;;5.65;;
12816;SDS011;6473;51.552;6.716;2022-09-28T08:14:41;6.88;;;6.18;;
12816;SDS011;6473;51.552;6.716;2022-09-28T08:17:28;6.05;;;5.45;;
12816;SDS011;6473;51.552;6.716;2022-09-28T08:19:59;5.35;;;4.85;;
12816;SDS011;6473;51.552;6.716;2022-09-28T08:22:44;6.43;;;4.45;;
12816;SDS011;6473;51.552;6.716;2022-09-28T08:25:11;6.50;;;4.55;;
12816;SDS011;6473;51.552;6.716;2022-09-28T08:27:39;5.10;;;4.60;;
12816;SDS011;6473;51.552;6.716;2022-09-28T08:30:06;6.88;;;4.63;;
12816;SDS011;6473;51.552;6.716;2022-09-28T08:32:49;7.45;;;4.88;;
12816;SDS011;6473;51.552;6.716;2022-09-28T08:35:38;5.93;;;5.35;;
12816;SDS011;6473;51.552;6.716;2022-09-28T08:38:26;6.05;;;5.07;;
12816;SDS011;6473;51.552;6.716;2022-09-28T08:40:58;5.18;;;4.75;;
12816;SDS011;6473;51.552;6.716;2022-09-28T08:43:51;5.35;;;4.85;;
12816;SDS011;6473;51.552;6.716;2022-09-28T08:46:46;4.90;;;4.50;;
12816;SDS011;6473;51.552;6.716;2022-09-28T08:49:40;5.72;;;5.13;;
12816;SDS011;6473;51.552;6.716;2022-09-28T08:52:35;5.15;;;4.65;;
12816;SDS011;6473;51.552;6.716;2022-09-28T08:55:27;5.85;;;5.28;;
12816;SDS011;6473;51.552;6.716;2022-09-28T08:57:59;5.95;;;5.45;;
12816;SDS011;6473;51.552;6.716;2022-09-28T09:00:34;6.47;;;4.90;;
12816;SDS011;6473;51.552;6.716;2022-09-28T09:03:08;5.90;;;5.18;;
12816;SDS011;6473;51.552;6.716;2022-09-28T09:05:41;5.00;;;4.60;;
12816;SDS011;6473;51.552;6.716;2022-09-28T09:08:43;6.05;;;5.53;;
12816;SDS011;6473;51.552;6.716;2022-09-28T09:11:25;5.13;;;4.72;;
12816;SDS011;6473;51.552;6.716;2022-09-28T09:14:10;4.35;;;4.00;;
12816;SDS011;6473;51.552;6.716;2022-09-28T09:16:54;7.13;;;4.35;;
12816;SDS011;6473;51.552;6.716;2022-09-28T09:19:51;3.80;;;3.40;;
12816;SDS011;6473;51.552;6.716;2022-09-28T09:22:40;4.05;;;3.28;;
12816;SDS011;6473;51.552;6.716;2022-09-28T09:25:18;3.63;;;3.33;;
12816;SDS011;6473;51.552;6.716;2022-09-28T09:27:55;5.03;;;3.47;;
12816;SDS011;6473;51.552;6.716;2022-09-28T09:30:35;3.60;;;3.30;;
12816;SDS011;6473;51.552;6.716;2022-09-28T09:33:22;4.88;;;3.38;;
12816;SDS011;6473;51.552;6.716;2022-09-28T09:36:41;4.35;;;3.60;;
12816;SDS011;6473;51.552;6.716;2022-09-28T09:39:40;4.60;;;3.63;;
12816;SDS011;6473;51.552;6.716;2022-09-28T09:42:40;4.28;;;3.95;;
12816;SDS011;6473;51.552;6.716;2022-09-28T09:45:51;4.72;;;4.32;;
12816;SDS011;6473;51.552;6.716;2022-09-28T09:48:35;4.53;;;4.15;;
12816;SDS011;6473;51.552;6.716;2022-09-28T09:51:12;3.95;;;3.65;;
12816;SDS011;6473;51.552;6.716;2022-09-28T09:53:46;3.97;;;3.55;;
12816;SDS011;6473;51.552;6.716;2022-09-28T09:56:18;5.00;;;3.30;;
12816;SDS011;6473;51.552;6.716;2022-09-28T09:59:05;3.72;;;3.53;;
12816;SDS011;6473;51.552;6.716;2022-09-28T10:01:54;3.88;;;3.63;;
12816;SDS011;6473;51.552;6.716;2022-09-28T10:04:34;4.22;;;3.00;;
12816;SDS011;6473;51.552;6.716;2022-09-28T10:07:14;3.13;;;2.80;;
12816;SDS011;6473;51.552;6.716;2022-09-28T10:09:47;3.67;;;3.00;;
12816;SDS011;6473;51.552;6.716;2022-09-28T10:12:39;2.85;;;2.65;;
12816;SDS011;6473;51.552;6.716;2022-09-28T10:15:12;3.58;;;2.90;;
12816;SDS011;6473;51.552;6.716;2022-09-28T10:17:53;3.00;;;2.70;;
12816;SDS011;6473;51.552;6.716;2022-09-28T10:20:41;3.58;;;2.63;;
12816;SDS011;6473;51.552;6.716;2022-09-28T10:23:19;3.25;;;2.55;;
12816;SDS011;6473;51.552;6.716;2022-09-28T10:25:51;2.17;;;2.08;;
12816;SDS011;6473;51.552;6.716;2022-09-28T10:28:32;2.67;;;2.42;;
12816;SDS011;6473;51.552;6.716;2022-09-28T10:34:02;2.85;;;2.28;;
12816;SDS011;6473;51.552;6.716;2022-09-28T10:36:30;2.72;;;2.20;;
12816;SDS011;6473;51.552;6.716;2022-09-28T10:39:03;3.53;;;1.92;;
12816;SDS011;6473;51.552;6.716;2022-09-28T10:41:31;1.50;;;1.40;;
12816;SDS011;6473;51.552;6.716;2022-09-28T10:44:05;7.03;;;2.15;;
12816;SDS011;6473;51.552;6.716;2022-09-28T10:46:59;2.20;;;1.40;;
12816;SDS011;6473;51.552;6.716;2022-09-28T10:49:38;1.20;;;1.10;;
12816;SDS011;6473;51.552;6.716;2022-09-28T10:52:26;1.88;;;1.40;;
12816;SDS011;6473;51.552;6.716;2022-09-28T10:54:56;1.40;;;1.30;;
12816;SDS011;6473;51.552;6.716;2022-09-28T10:57:25;1.10;;;1.10;;
12816;SDS011;6473;51.552;6.716;2022-09-28T10:59:58;1.80;;;1.13;;
12816;SDS011;6473;51.552;6.716;2022-09-28T11:02:35;2.88;;;1.30;;
12816;SDS011;6473;51.552;6.716;2022-09-28T11:05:17;3.60;;;1.60;;
12816;SDS011;6473;51.552;6.716;2022-09-28T11:07:47;1.48;;;1.40;;
12816;SDS011;6473;51.552;6.716;2022-09-28T11:10:24;1.38;;;1.35;;
12816;SDS011;6473;51.552;6.716;2022-09-28T11:13:00;1.50;;;1.40;;
12816;SDS011;6473;51.552;6.716;2022-09-28T11:15:29;3.25;;;1.67;;
12816;SDS011;6473;51.552;6.716;2022-09-28T11:21:07;1.70;;;1.52;;
12816;SDS011;6473;51.552;6.716;2022-09-28T11:23:35;2.70;;;1.60;;
12816;SDS011;6473;51.552;6.716;2022-09-28T11:26:14;3.35;;;1.60;;
12816;SDS011;6473;51.552;6.716;2022-09-28T11:28:42;1.95;;;1.73;;
12816;SDS011;6473;51.552;6.716;2022-09-28T11:31:23;2.30;;;2.05;;
12816;SDS011;6473;51.552;6.716;2022-09-28T11:34:02;2.47;;;1.98;;
12816;SDS011;6473;51.552;6.716;2022-09-28T11:36:44;3.50;;;1.88;;
12816;SDS011;6473;51.552;6.716;2022-09-28T11:39:38;2.28;;;2.10;;
12816;SDS011;6473;51.552;6.716;2022-09-28T11:42:16;2.63;;;2.30;;
12816;SDS011;6473;51.552;6.716;2022-09-28T11:44:53;3.05;;;2.40;;
12816;SDS011;6473;51.552;6.716;2022-09-28T11:50:21;4.47;;;2.53;;
12816;SDS011;6473;51.552;6.716;2022-09-28T11:52:56;3.05;;;2.85;;
12816;SDS011;6473;51.552;6.716;2022-09-28T11:55:35;2.20;;;2.10;;
12816;SDS011;6473;51.552;6.716;2022-09-28T11:58:09;4.30;;;2.00;;
12816;SDS011;6473;51.552;6.716;2022-09-28T12:00:41;2.70;;;2.03;;
12816;SDS011;6473;51.552;6.716;2022-09-28T12:03:20;1.50;;;1.40;;
12816;SDS011;6473;51.552;6.716;2022-09-28T12:05:51;2.05;;;1.65;;
12816;SDS011;6473;51.552;6.716;2022-09-28T12:08:25;2.15;;;1.65;;
12816;SDS011;6473;51.552;6.716;2022-09-28T12:11:04;1.50;;;1.40;;
12816;SDS011;6473;51.552;6.716;2022-09-28T12:13:54;1.65;;;1.52;;
12816;SDS011;6473;51.552;6.716;2022-09-28T12:16:26;2.55;;;1.85;;
12816;SDS011;6473;51.552;6.716;2022-09-28T12:18:57;3.00;;;1.92;;
12816;SDS011;6473;51.552;6.716;2022-09-28T12:21:30;2.42;;;1.80;;
12816;SDS011;6473;51.552;6.716;2022-09-28T12:24:03;5.00;;;2.00;;
12816;SDS011;6473;51.552;6.716;2022-09-28T12:26:39;2.72;;;1.58;;
12816;SDS011;6473;51.552;6.716;2022-09-28T12:29:10;2.85;;;1.60;;
12816;SDS011;6473;51.552;6.716;2022-09-28T12:31:42;3.33;;;1.60;;
12816;SDS011;6473;51.552;6.716;2022-09-28T12:34:17;1.98;;;1.80;;
12816;SDS011;6473;51.552;6.716;2022-09-28T12:36:48;2.20;;;1.73;;
12816;SDS011;6473;51.552;6.716;2022-09-28T12:39:33;2.33;;;1.52;;
12816;SDS011;6473;51.552;6.716;2022-09-28T12:42:14;3.30;;;1.60;;
12816;SDS011;6473;51.552;6.716;2022-09-28T12:44:57;6.40;;;1.70;;
12816;SDS011;6473;51.552;6.716;2022-09-28T12:47:40;7.45;;;1.60;;
12816;SDS011;6473;51.552;6.716;2022-09-28T12:50:26;1.30;;;1.20;;
12816;SDS011;6473;51.552;6.716;2022-09-28T12:53:03;2.00;;;1.30;;
12816;SDS011;6473;51.552;6.716;2022-09-28T12:55:53;1.33;;;1.15;;
12816;SDS011;6473;51.552;6.716;2022-09-28T12:58:33;3.95;;;1.10;;
12816;SDS011;6473;51.552;6.716;2022-09-28T13:01:17;1.33;;;1.00;;
12816;SDS011;6473;51.552;6.716;2022-09-28T13:04:14;1.85;;;0.93;;
12816;SDS011;6473;51.552;6.716;2022-09-28T13:06:55;1.58;;;1.40;;
12816;SDS011;6473;51.552;6.716;2022-09-28T13:09:29;1.88;;;1.30;;
12816;SDS011;6473;51.552;6.716;2022-09-28T13:15:01;1.00;;;1.00;;
12816;SDS011;6473;51.552;6.716;2022-09-28T13:18:03;1.50;;;1.17;;
12816;SDS011;6473;51.552;6.716;2022-09-28T13:20:38;1.38;;;1.00;;
12816;SDS011;6473;51.552;6.716;2022-09-28T13:23:18;1.40;;;1.27;;
12816;SDS011;6473;51.552;6.716;2022-09-28T13:25:49;1.05;;;1.05;;
12816;SDS011;6473;51.552;6.716;2022-09-28T13:28:21;1.08;;;1.05;;
12816;SDS011;6473;51.552;6.716;2022-09-28T13:30:50;1.70;;;1.23;;
12816;SDS011;6473;51.552;6.716;2022-09-28T13:33:21;1.63;;;1.30;;
12816;SDS011;6473;51.552;6.716;2022-09-28T13:35:54;1.73;;;1.40;;
12816;SDS011;6473;51.552;6.716;2022-09-28T13:41:22;1.90;;;1.50;;
12816;SDS011;6473;51.552;6.716;2022-09-28T13:47:05;1.67;;;1.58;;
12816;SDS011;6473;51.552;6.716;2022-09-28T13:49:53;2.88;;;1.77;;
12816;SDS011;6473;51.552;6.716;2022-09-28T13:52:30;2.05;;;1.95;;
12816;SDS011;6473;51.552;6.716;2022-09-28T13:55:13;2.25;;;2.05;;
12816;SDS011;6473;51.552;6.716;2022-09-28T13:57:50;2.88;;;2.42;;
12816;SDS011;6473;51.552;6.716;2022-09-28T14:00:24;2.30;;;2.20;;
12816;SDS011;6473;51.552;6.716;2022-09-28T14:02:55;2.15;;;1.70;;
12816;SDS011;6473;51.552;6.716;2022-09-28T14:05:45;1.60;;;1.50;;
12816;SDS011;6473;51.552;6.716;2022-09-28T14:08:23;1.50;;;1.40;;
12816;SDS011;6473;51.552;6.716;2022-09-28T14:10:53;1.48;;;1.38;;
12816;SDS011;6473;51.552;6.716;2022-09-28T14:16:29;1.63;;;1.52;;
12816;SDS011;6473;51.552;6.716;2022-09-28T14:18:58;1.67;;;1.58;;
12816;SDS011;6473;51.552;6.716;2022-09-28T14:24:33;1.50;;;1.40;;
12816;SDS011;6473;51.552;6.716;2022-09-28T14:27:28;1.77;;;1.67;;
12816;SDS011;6473;51.552;6.716;2022-09-28T14:30:20;2.35;;;2.15;;
12816;SDS011;6473;51.552;6.716;2022-09-28T14:32:54;2.13;;;1.85;;
12816;SDS011;6473;51.552;6.716;2022-09-28T14:35:25;1.55;;;1.45;;
12816;SDS011;6473;51.552;6.716;2022-09-28T14:37:57;3.35;;;1.95;;
12816;SDS011;6473;51.552;6.716;2022-09-28T14:40:55;1.92;;;1.45;;
12816;SDS011;6473;51.552;6.716;2022-09-28T14:46:35;1.50;;;1.40;;
12816;SDS011;6473;51.552;6.716;2022-09-28T14:49:11;1.40;;;1.30;;
12816;SDS011;6473;51.552;6.716;2022-09-28T14:55:10;2.08;;;1.98;;
12816;SDS011;6473;51.552;6.716;2022-09-28T14:57:39;1.80;;;1.70;;
12816;SDS011;6473;51.552;6.716;2022-09-28T15:00:07;2.40;;;1.85;;
12816;SDS011;6473;51.552;6.716;2022-09-28T15:02:46;1.70;;;1.60;;
12816;SDS011;6473;51.552;6.716;2022-09-28T15:05:17;1.95;;;1.85;;
12816;SDS011;6473;51.552;6.716;2022-09-28T15:07:50;1.40;;;1.40;;
12816;SDS011;6473;51.552;6.716;2022-09-28T15:10:27;3.03;;;1.50;;
12816;SDS011;6473;51.552;6.716;2022-09-28T15:12:57;1.70;;;1.60;;
12816;SDS011;6473;51.552;6.716;2022-09-28T15:15:27;1.67;;;1.20;;
12816;SDS011;6473;51.552;6.716;2022-09-28T15:18:04;1.45;;;1.35;;
12816;SDS011;6473;51.552;6.716;2022-09-28T15:20:43;1.40;;;1.30;;
12816;SDS011;6473;51.552;6.716;2022-09-28T15:23:24;3.13;;;1.20;;
12816;SDS011;6473;51.552;6.716;2022-09-28T15:25:58;2.42;;;1.13;;
12816;SDS011;6473;51.552;6.716;2022-09-28T15:28:25;1.20;;;1.10;;
12816;SDS011;6473;51.552;6.716;2022-09-28T15:30:58;1.15;;;1.15;;
12816;SDS011;6473;51.552;6.716;2022-09-28T15:33:27;3.55;;;1.10;;
12816;SDS011;6473;51.552;6.716;2022-09-28T15:36:14;1.63;;;1.30;;
12816;SDS011;6473;51.552;6.716;2022-09-28T15:38:52;1.17;;;1.02;;
12816;SDS011;6473;51.552;6.716;2022-09-28T15:41:22;1.05;;;1.02;;
12816;SDS011;6473;51.552;6.716;2022-09-28T15:47:03;1.17;;;1.00;;
12816;SDS011;6473;51.552;6.716;2022-09-28T15:49:38;0.90;;;0.90;;
12816;SDS011;6473;51.552;6.716;2022-09-28T15:52:19;1.25;;;1.20;;
12816;SDS011;6473;51.552;6.716;2022-09-28T15:54:51;1.30;;;1.20;;
12816;SDS011;6473;51.552;6.716;2022-09-28T15:57:27;1.17;;;1.17;;
12816;SDS011;6473;51.552;6.716;2022-09-28T15:59:57;1.48;;;1.05;;
12816;SDS011;6473;51.552;6.716;2022-09-28T16:02:25;2.85;;;1.60;;
12816;SDS011;6473;51.552;6.716;2022-09-28T16:04:53;1.40;;;1.30;;
12816;SDS011;6473;51.552;6.716;2022-09-28T16:07:24;1.45;;;1.35;;
12816;SDS011;6473;51.552;6.716;2022-09-28T16:13:04;1.77;;;1.40;;
12816;SDS011;6473;51.552;6.716;2022-09-28T16:15:35;2.17;;;1.50;;
12816;SDS011;6473;51.552;6.716;2022-09-28T16:18:15;3.03;;;1.40;;
12816;SDS011;6473;51.552;6.716;2022-09-28T16:20:46;1.73;;;1.05;;
12816;SDS011;6473;51.552;6.716;2022-09-28T16:23:25;1.50;;;0.90;;